Time;durP1;ratioP1;P1;durP2;ratioP2;P2;SDS_P1;SDS_P2;PMS_P1;PMS_P2;Temp;Humidity;BMP_temperature;BMP_pressure;BME280_temperature;BME280_humidity;BME280_pressure;Samples;Min_cycle;Max_cycle;Signal;HPM_P1;HPM_P2
2022/04/30 00:02:13;;;;;;;10.55;4.50;;;;;;;11.20;100.00;102693.19;5072262;28;20467;-83
2022/04/30 00:04:43;;;;;;;13.68;4.72;;;;;;;10.93;100.00;102710.00;5073329;28;20048;-83
2022/04/30 00:07:17;;;;;;;9.13;3.80;;;;;;;10.91;100.00;102697.81;5071775;28;20151;-83
2022/04/30 00:09:45;;;;;;;8.90;3.53;;;;;;;10.51;100.00;102638.69;5072369;28;20066;-83
2022/04/30 00:12:13;;;;;;;10.43;4.10;;;;;;;10.65;100.00;102672.66;5072269;28;20049;-83
2022/04/30 00:14:40;;;;;;;9.70;3.28;;;;;;;10.99;100.00;102698.59;5071840;28;20045;-83
2022/04/30 00:17:08;;;;;;;10.35;3.92;;;;;;;11.03;100.00;102702.97;5071468;28;20040;-83
2022/04/30 00:19:35;;;;;;;12.02;3.92;;;;;;;10.63;100.00;102653.47;5072650;28;20052;-83
2022/04/30 00:22:03;;;;;;;9.68;3.83;;;;;;;10.81;100.00;102665.56;5072625;28;20074;-83
2022/04/30 00:24:30;;;;;;;8.55;3.33;;;;;;;10.50;100.00;102652.69;5071357;28;20131;-83
2022/04/30 00:26:59;;;;;;;11.95;3.25;;;;;;;10.69;100.00;102686.59;5071542;28;20098;-83
2022/04/30 00:29:29;;;;;;;9.98;3.40;;;;;;;10.55;100.00;102656.16;5071959;28;20397;-83
2022/04/30 00:31:57;;;;;;;9.57;3.70;;;;;;;10.65;100.00;102691.00;5069567;28;20166;-83
2022/04/30 00:34:24;;;;;;;11.13;4.55;;;;;;;10.27;100.00;102679.84;5071168;28;20052;-83
2022/04/30 00:36:51;;;;;;;9.98;3.38;;;;;;;10.12;100.00;102630.19;5070885;28;20131;-84
2022/04/30 00:39:17;;;;;;;10.00;3.72;;;;;;;10.15;100.00;102635.41;5071691;28;20048;-83
2022/04/30 00:41:46;;;;;;;9.02;3.55;;;;;;;10.49;100.00;102682.38;5070750;28;20139;-83
2022/04/30 00:44:20;;;;;;;8.52;3.58;;;;;;;10.88;100.00;102672.47;5067838;28;20376;-84
2022/04/30 00:46:47;;;;;;;8.52;3.90;;;;;;;10.61;100.00;102660.47;5069537;28;20044;-82
2022/04/30 00:49:14;;;;;;;8.90;3.08;;;;;;;10.42;100.00;102647.47;5071531;28;20676;-82
2022/04/30 00:51:43;;;;;;;9.05;3.42;;;;;;;10.44;100.00;102639.63;5070308;28;20048;-82
2022/04/30 00:54:12;;;;;;;8.50;3.17;;;;;;;10.64;100.00;102668.28;5070081;28;20044;-82
2022/04/30 00:56:45;;;;;;;10.98;3.72;;;;;;;10.48;100.00;102670.13;5070642;28;20074;-83
2022/04/30 00:59:18;;;;;;;10.52;4.30;;;;;;;10.66;100.00;102656.06;5071076;28;20048;-83
2022/04/30 01:01:47;;;;;;;9.63;3.55;;;;;;;10.61;100.00;102647.38;5070430;28;20520;-83
2022/04/30 01:04:15;;;;;;;10.35;3.78;;;;;;;10.47;100.00;102655.31;5070602;28;20521;-83
2022/04/30 01:06:49;;;;;;;7.03;2.78;;;;;;;10.60;100.00;102645.63;5070665;28;20052;-83
2022/04/30 01:09:22;;;;;;;8.68;3.65;;;;;;;10.58;100.00;102627.28;5070829;28;20049;-84
2022/04/30 01:11:56;;;;;;;13.55;4.00;;;;;;;10.67;100.00;102635.97;5069619;28;20044;-84
2022/04/30 01:14:29;;;;;;;8.98;3.00;;;;;;;10.66;100.00;102636.84;5074692;28;20052;-84
2022/04/30 01:17:04;;;;;;;8.85;3.30;;;;;;;10.71;100.00;102635.06;5075151;28;20482;-84
2022/04/30 01:19:37;;;;;;;11.20;4.07;;;;;;;10.55;100.00;102639.53;5074628;28;20402;-84
2022/04/30 01:22:11;;;;;;;9.45;3.65;;;;;;;10.33;100.00;102630.97;5073157;28;20052;-84
2022/04/30 01:24:38;;;;;;;9.05;4.03;;;;;;;10.27;100.00;102595.19;5074766;28;20055;-84
2022/04/30 01:27:07;;;;;;;11.77;3.53;;;;;;;10.57;100.00;102637.78;5073869;28;20048;-83
2022/04/30 01:29:36;;;;;;;14.57;3.92;;;;;;;10.16;100.00;102586.53;5075421;28;20068;-84
2022/04/30 01:37:37;;;;;;;8.35;3.17;;;;;;;10.38;100.00;102588.16;5074943;28;20380;-84
2022/04/30 01:40:11;;;;;;;8.23;3.53;;;;;;;10.51;100.00;102624.75;5073409;28;20071;-83
2022/04/30 01:42:44;;;;;;;8.68;3.20;;;;;;;10.37;100.00;102580.31;5060903;28;20049;-84
2022/04/30 01:45:11;;;;;;;10.15;4.28;;;;;;;10.69;100.00;102623.72;5086647;28;20071;-83
2022/04/30 01:47:40;;;;;;;15.27;4.82;;;;;;;10.45;100.00;102599.47;5058762;28;20471;-83
2022/04/30 01:50:08;;;;;;;11.43;5.05;;;;;;;10.54;100.00;102586.31;5074400;28;20037;-83
2022/04/30 01:52:36;;;;;;;8.48;3.00;;;;;;;10.24;100.00;102556.81;5073839;28;20513;-83
2022/04/30 01:55:04;;;;;;;8.60;3.40;;;;;;;10.80;100.00;102614.00;5073361;28;20040;-83
2022/04/30 01:57:31;;;;;;;12.00;4.47;;;;;;;10.03;100.00;102570.03;5075037;28;20044;-83
2022/04/30 02:00:00;;;;;;;14.82;4.47;;;;;;;10.27;100.00;102616.16;5073435;28;20048;-84
2022/04/30 02:02:34;;;;;;;8.50;3.17;;;;;;;10.53;100.00;102581.06;5053867;28;20048;-83
2022/04/30 02:05:09;;;;;;;8.73;3.10;;;;;;;10.52;100.00;102605.53;5053204;28;20052;-83
2022/04/30 02:07:41;;;;;;;10.68;3.88;;;;;;;10.31;100.00;102601.28;5053206;28;20053;-84
2022/04/30 02:10:10;;;;;;;9.68;3.70;;;;;;;10.19;100.00;102569.06;5056656;28;20051;-83
2022/04/30 02:12:37;;;;;;;11.20;3.88;;;;;;;10.22;100.00;102552.47;5074586;28;20055;-83
2022/04/30 02:15:05;;;;;;;14.38;4.72;;;;;;;10.26;100.00;102580.34;5055318;28;20044;-83
2022/04/30 02:17:38;;;;;;;8.90;3.75;;;;;;;10.11;100.00;102542.09;5056061;28;20376;-83
2022/04/30 02:20:18;;;;;;;14.43;4.90;;;;;;;10.56;100.00;102588.91;5073135;28;20470;-83
2022/04/30 02:22:46;;;;;;;15.48;6.10;;;;;;;9.82;100.00;102530.03;5074305;28;20048;-83
2022/04/30 02:25:14;;;;;;;15.30;4.32;;;;;;;10.16;100.00;102544.66;5071965;28;20044;-83
2022/04/30 02:27:46;;;;;;;10.00;3.60;;;;;;;10.38;100.00;102593.41;5072733;28;20394;-83
2022/04/30 02:30:18;;;;;;;11.15;4.40;;;;;;;10.42;100.00;102555.81;5072500;28;20040;-84
2022/04/30 02:32:51;;;;;;;13.88;5.38;;;;;;;10.17;100.00;102575.19;5073299;28;20098;-84
2022/04/30 02:35:20;;;;;;;11.63;5.05;;;;;;;10.32;100.00;102572.47;5072394;28;20115;-84
2022/04/30 02:37:52;;;;;;;9.27;3.63;;;;;;;10.58;100.00;102584.53;5073380;28;20059;-83
2022/04/30 02:40:21;;;;;;;10.65;4.80;;;;;;;10.38;100.00;102576.84;5072294;28;20044;-84
2022/04/30 02:42:50;;;;;;;11.60;4.70;;;;;;;10.36;100.00;102570.75;5072620;28;20045;-83
2022/04/30 02:45:18;;;;;;;9.75;4.15;;;;;;;10.26;100.00;102514.91;5073585;28;20049;-83
2022/04/30 02:47:52;;;;;;;14.68;5.13;;;;;;;10.29;100.00;102550.66;5072869;28;20048;-83
2022/04/30 02:50:22;;;;;;;10.57;4.57;;;;;;;10.37;100.00;102541.03;5073497;28;20402;-83
2022/04/30 02:52:50;;;;;;;8.65;3.63;;;;;;;10.67;100.00;102563.47;5072311;28;20048;-83
2022/04/30 02:55:17;;;;;;;13.15;5.47;;;;;;;10.13;100.00;102515.88;5073372;28;20398;-83
2022/04/30 03:00:46;;;;;;;9.35;4.28;;;;;;;10.36;100.00;102516.63;5072884;28;20135;-83
2022/04/30 03:03:14;;;;;;;9.75;3.63;;;;;;;10.38;100.00;102545.41;5072799;28;20052;-83
2022/04/30 03:05:45;;;;;;;9.45;3.60;;;;;;;10.19;100.00;102521.06;5072354;28;20045;-83
2022/04/30 03:08:15;;;;;;;10.88;3.92;;;;;;;10.31;100.00;102531.50;5073850;28;20079;-83
2022/04/30 03:10:44;;;;;;;11.13;4.53;;;;;;;10.50;100.00;102536.56;5072436;28;20569;-82
2022/04/30 03:13:14;;;;;;;7.97;3.33;;;;;;;10.33;100.00;102506.16;5072422;28;20084;-81
2022/04/30 03:15:44;;;;;;;12.20;5.15;;;;;;;10.16;100.00;102542.03;5071873;28;20155;-82
2022/04/30 03:23:47;;;;;;;10.75;3.42;;;;;;;10.45;100.00;102492.09;5061670;28;20051;-81
2022/04/30 03:26:15;;;;;;;11.38;4.82;;;;;;;10.41;100.00;102530.53;5072086;28;20634;-81
2022/04/30 03:28:43;;;;;;;11.98;4.97;;;;;;;10.16;100.00;102484.44;5072043;28;20048;-81
2022/04/30 03:31:10;;;;;;;10.55;4.55;;;;;;;10.48;100.00;102528.72;5071310;28;20552;-81
2022/04/30 03:33:38;;;;;;;11.10;4.45;;;;;;;10.69;100.00;102521.56;5071662;28;20074;-81
2022/04/30 03:36:06;;;;;;;10.35;3.47;;;;;;;10.19;100.00;102474.81;5072233;28;20051;-81
2022/04/30 03:38:32;;;;;;;13.18;4.72;;;;;;;10.55;100.00;102504.25;5072617;28;20504;-81
2022/04/30 03:40:59;;;;;;;9.18;4.00;;;;;;;10.24;100.00;102486.13;5071245;28;20048;-83
2022/04/30 03:43:26;;;;;;;12.07;3.47;;;;;;;10.05;100.00;102460.97;5071588;28;20053;-83
2022/04/30 03:45:53;;;;;;;9.93;3.83;;;;;;;10.26;100.00;102483.50;5071580;28;20414;-83
2022/04/30 03:48:20;;;;;;;10.77;4.40;;;;;;;10.12;100.00;102486.22;5072677;28;20063;-83
2022/04/30 03:50:47;;;;;;;9.38;3.80;;;;;;;9.93;100.00;102468.91;5072540;28;20051;-83
2022/04/30 03:53:14;;;;;;;11.38;3.92;;;;;;;9.99;100.00;102451.44;5072669;28;20424;-83
2022/04/30 03:55:40;;;;;;;9.77;4.05;;;;;;;10.35;100.00;102475.59;5072958;28;20516;-84
2022/04/30 03:58:07;;;;;;;16.75;4.90;;;;;;;10.00;100.00;102450.53;5071111;28;20052;-84
2022/04/30 04:00:34;;;;;;;8.68;3.20;;;;;;;10.38;100.00;102469.47;5072641;28;20056;-83
2022/04/30 04:03:01;;;;;;;9.82;3.72;;;;;;;10.38;100.00;102451.16;5072499;28;20084;-84
2022/04/30 04:05:28;;;;;;;10.32;3.55;;;;;;;10.21;100.00;102444.25;5072580;28;20050;-84
2022/04/30 04:07:58;;;;;;;8.30;3.63;;;;;;;10.33;100.00;102474.75;5064288;28;20103;-83
2022/04/30 04:10:26;;;;;;;9.02;3.72;;;;;;;10.06;100.00;102481.03;5057535;28;20132;-83
2022/04/30 04:17:37;;;;;;;9.60;3.10;;;;;;;10.31;100.00;102475.63;5072707;28;20389;-84
2022/04/30 04:18:25;;;;;;;11.48;3.78;;;;;;;9.92;100.00;102456.72;5072536;28;20099;-83
2022/04/30 04:20:52;;;;;;;10.75;3.90;;;;;;;10.34;100.00;102488.69;5072821;28;20052;-83
2022/04/30 04:23:19;;;;;;;10.02;3.17;;;;;;;10.28;100.00;102463.41;5065147;28;20051;-83
2022/04/30 04:26:00;;;;;;;11.35;4.43;;;;;;;10.14;100.00;102478.34;5051411;28;20067;-83
2022/04/30 04:28:28;;;;;;;8.00;3.33;;;;;;;10.14;100.00;102460.91;5052497;28;20131;-83
2022/04/30 04:30:58;;;;;;;10.60;3.08;;;;;;;10.10;100.00;102440.00;5063749;28;20102;-83
2022/04/30 04:33:25;;;;;;;10.75;3.88;;;;;;;10.29;100.00;102466.88;5070960;28;20399;-83
2022/04/30 04:35:52;;;;;;;9.85;3.15;;;;;;;10.42;100.00;102455.47;5066601;28;20470;-83
2022/04/30 04:38:19;;;;;;;12.65;4.18;;;;;;;10.56;100.00;102471.03;5062707;28;20067;-83
2022/04/30 04:40:46;;;;;;;10.32;3.53;;;;;;;10.15;100.00;102444.31;5066777;28;20055;-83
2022/04/30 04:43:12;;;;;;;12.00;3.58;;;;;;;10.19;100.00;102437.31;5063967;28;20058;-83
2022/04/30 04:45:43;;;;;;;9.18;4.03;;;;;;;9.78;100.00;102436.75;5060761;28;20048;-83
2022/04/30 04:48:10;;;;;;;8.93;3.30;;;;;;;10.54;100.00;102467.59;5092025;28;20075;-83
2022/04/30 04:50:39;;;;;;;10.48;4.03;;;;;;;10.73;100.00;102479.59;5072262;28;20049;-83
2022/04/30 04:53:05;;;;;;;8.88;2.90;;;;;;;10.73;100.00;102468.25;5065814;28;20075;-83
2022/04/30 04:55:32;;;;;;;13.85;5.25;;;;;;;10.26;100.00;102415.44;5068429;28;20044;-83
2022/04/30 04:57:59;;;;;;;8.70;3.80;;;;;;;10.22;100.00;102453.00;5071440;28;20045;-83
2022/04/30 05:00:26;;;;;;;8.32;3.55;;;;;;;10.47;100.00;102447.56;5066032;28;20127;-83
2022/04/30 05:02:53;;;;;;;12.75;3.88;;;;;;;10.17;100.00;102413.75;5059173;28;20053;-83
2022/04/30 05:05:21;;;;;;;11.55;3.38;;;;;;;10.50;100.00;102431.81;5059291;28;20047;-83
2022/04/30 05:07:47;;;;;;;9.60;3.08;;;;;;;10.44;100.00;102457.16;5073232;28;20063;-83
2022/04/30 05:10:15;;;;;;;12.18;4.13;;;;;;;10.59;100.00;102465.78;5065700;28;20068;-83
2022/04/30 05:12:45;;;;;;;9.90;4.18;;;;;;;10.53;100.00;102463.22;5074470;28;20055;-83
2022/04/30 05:15:13;;;;;;;11.15;3.55;;;;;;;10.82;100.00;102468.16;5074283;28;20372;-84
2022/04/30 05:17:40;;;;;;;11.77;4.13;;;;;;;10.23;100.00;102460.84;5061076;28;20052;-83
2022/04/30 05:20:07;;;;;;;10.18;4.28;;;;;;;10.59;100.00;102463.16;5070971;28;20056;-83
2022/04/30 05:22:54;;;;;;;9.27;3.60;;;;;;;10.65;100.00;102444.75;5068221;28;20048;-83
2022/04/30 05:25:21;;;;;;;10.38;3.92;;;;;;;10.90;100.00;102453.19;5062803;28;20044;-84
2022/04/30 05:27:47;;;;;;;10.15;3.88;;;;;;;10.50;100.00;102465.84;5068523;28;20049;-83
2022/04/30 05:30:14;;;;;;;10.05;4.53;;;;;;;10.49;100.00;102451.91;5071353;28;20487;-83
2022/04/30 05:32:41;;;;;;;10.70;4.50;;;;;;;10.42;100.00;102466.78;5068439;28;20058;-83
2022/04/30 05:35:08;;;;;;;11.68;3.60;;;;;;;10.53;100.00;102432.63;5061915;28;20052;-83
2022/04/30 05:37:35;;;;;;;13.75;4.35;;;;;;;10.31;100.00;102420.63;5067466;28;20693;-83
2022/04/30 05:40:03;;;;;;;10.52;3.78;;;;;;;10.82;100.00;102452.44;5064471;28;20041;-83
2022/04/30 05:42:30;;;;;;;11.27;3.85;;;;;;;10.50;100.00;102416.09;5073865;28;20053;-83
2022/04/30 05:44:56;;;;;;;14.63;5.03;;;;;;;10.54;100.00;102457.97;5066152;28;20398;-84
2022/04/30 05:47:23;;;;;;;12.73;4.32;;;;;;;10.89;100.00;102463.69;5065504;28;20049;-83
2022/04/30 05:49:50;;;;;;;10.25;4.05;;;;;;;10.50;100.00;102437.03;5056551;28;20515;-82
2022/04/30 05:52:19;;;;;;;12.18;5.28;;;;;;;10.43;100.00;102434.50;5057029;28;20060;-82
2022/04/30 05:54:46;;;;;;;11.88;3.85;;;;;;;10.44;100.00;102411.78;5064645;28;20516;-83
2022/04/30 05:57:13;;;;;;;11.98;3.70;;;;;;;11.06;100.00;102432.91;5063468;28;20127;-83
2022/04/30 05:59:40;;;;;;;9.30;3.33;;;;;;;11.14;100.00;102465.16;5063494;28;20044;-84
2022/04/30 06:02:07;;;;;;;9.05;3.50;;;;;;;11.00;100.00;102419.91;5069122;28;20044;-84
2022/04/30 06:04:35;;;;;;;10.35;4.00;;;;;;;10.90;100.00;102405.16;5060495;28;20071;-84
2022/04/30 06:07:02;;;;;;;11.07;4.82;;;;;;;10.85;100.00;102420.09;5057690;28;20055;-84
2022/04/30 06:09:29;;;;;;;10.05;3.88;;;;;;;11.08;100.00;102420.66;5055233;28;20056;-84
2022/04/30 06:11:55;;;;;;;8.02;3.45;;;;;;;11.24;100.00;102431.81;5062653;28;20052;-84
2022/04/30 06:14:22;;;;;;;10.88;3.63;;;;;;;11.04;100.00;102408.47;5056605;28;20052;-84
2022/04/30 06:16:49;;;;;;;10.63;3.83;;;;;;;10.99;100.00;102407.66;5071063;28;20048;-84
2022/04/30 06:19:16;;;;;;;16.10;4.40;;;;;;;11.05;100.00;102391.88;5065796;28;20044;-83
2022/04/30 06:21:45;;;;;;;11.13;4.15;;;;;;;11.07;100.00;102391.88;5064202;28;20075;-83
2022/04/30 06:24:12;;;;;;;8.25;3.78;;;;;;;11.00;100.00;102404.19;5062831;28;20044;-84
2022/04/30 06:26:39;;;;;;;10.93;3.83;;;;;;;11.04;100.00;102421.59;5094629;28;20049;-83
2022/04/30 06:29:07;;;;;;;10.48;3.92;;;;;;;10.91;100.00;102410.41;5064292;28;20087;-84
2022/04/30 06:31:34;;;;;;;12.52;3.13;;;;;;;11.18;100.00;102408.31;5067882;28;20449;-83
2022/04/30 06:34:01;;;;;;;6.82;2.60;;;;;;;11.53;100.00;102420.94;5069465;28;20053;-84
2022/04/30 06:36:28;;;;;;;11.68;3.55;;;;;;;11.45;100.00;102414.91;5054785;28;20486;-82
2022/04/30 06:38:54;;;;;;;7.70;2.55;;;;;;;11.36;100.00;102410.66;5069424;28;20131;-82
2022/04/30 06:41:21;;;;;;;11.07;3.83;;;;;;;11.55;100.00;102413.91;5059349;28;20052;-83
2022/04/30 06:43:51;;;;;;;8.25;3.28;;;;;;;11.46;100.00;102414.03;5066766;28;20384;-85
2022/04/30 06:46:19;;;;;;;8.50;3.50;;;;;;;11.77;100.00;102422.31;5063063;28;20049;-85
2022/04/30 06:48:45;;;;;;;15.88;5.75;;;;;;;11.47;100.00;102414.91;5064161;28;20052;-85
2022/04/30 06:51:12;;;;;;;11.48;4.05;;;;;;;11.77;100.00;102419.69;5056168;28;20083;-82
2022/04/30 06:59:12;;;;;;;10.57;3.88;;;;;;;12.07;100.00;102401.72;5067317;28;20504;-81
2022/04/30 07:04:26;;;;;;;10.70;3.35;;;;;;;12.76;100.00;102375.91;5056688;28;20087;-82
2022/04/30 07:06:53;;;;;;;11.55;3.65;;;;;;;12.15;100.00;102359.59;5070058;28;20059;-81
2022/04/30 07:09:20;;;;;;;9.57;3.10;;;;;;;11.96;100.00;102362.53;5073062;28;20044;-82
2022/04/30 07:11:46;;;;;;;9.02;3.15;;;;;;;11.75;100.00;102336.63;5073001;28;20059;-81
2022/04/30 07:14:13;;;;;;;9.77;2.72;;;;;;;12.42;100.00;102389.72;5072443;28;20070;-81
2022/04/30 07:16:40;;;;;;;9.85;3.33;;;;;;;11.91;100.00;102343.38;5073792;28;20128;-82
2022/04/30 07:19:07;;;;;;;7.85;2.80;;;;;;;11.84;100.00;102377.59;5073544;28;20055;-83
2022/04/30 07:21:34;;;;;;;11.45;3.67;;;;;;;11.36;100.00;102337.22;5072597;28;20052;-83
2022/04/30 07:24:01;;;;;;;12.30;3.40;;;;;;;11.16;100.00;102365.53;5072566;28;20052;-82
2022/04/30 07:26:28;;;;;;;11.73;3.42;;;;;;;11.32;100.00;102353.91;5073913;28;20044;-83
2022/04/30 07:28:55;;;;;;;6.63;2.70;;;;;;;12.07;100.00;102357.09;5072626;28;20436;-83
2022/04/30 07:31:22;;;;;;;9.80;2.83;;;;;;;12.21;100.00;102327.09;5072464;28;20141;-83
2022/04/30 07:33:51;;;;;;;8.52;2.90;;;;;;;12.43;100.00;102336.28;5072676;28;20048;-82
2022/04/30 07:36:19;;;;;;;11.68;3.67;;;;;;;12.83;100.00;102364.38;5066709;28;20041;-83
2022/04/30 07:38:46;;;;;;;9.27;2.50;;;;;;;12.94;100.00;102316.81;5052345;28;20049;-83
2022/04/30 07:41:12;;;;;;;8.85;3.20;;;;;;;13.21;100.00;102343.38;5065796;28;20059;-83
2022/04/30 07:43:39;;;;;;;11.40;3.85;;;;;;;13.10;100.00;102320.84;5066390;28;20070;-82
2022/04/30 07:46:06;;;;;;;9.82;2.92;;;;;;;13.54;100.00;102347.00;5073190;28;20047;-82
2022/04/30 07:48:38;;;;;;;9.95;3.30;;;;;;;13.15;100.00;102322.50;5069971;28;20075;-83
2022/04/30 07:51:13;;;;;;;12.57;2.88;;;;;;;13.64;100.00;102308.19;5062804;28;20051;-81
2022/04/30 07:53:41;;;;;;;7.10;2.20;;;;;;;13.99;100.00;102288.84;5072652;28;20106;-82
2022/04/30 07:56:09;;;;;;;9.88;2.60;;;;;;;13.99;100.00;102346.78;5060256;28;20045;-82
2022/04/30 07:58:36;;;;;;;12.40;2.92;;;;;;;13.84;100.00;102334.84;5058665;28;20048;-83
2022/04/30 08:01:04;;;;;;;9.98;2.90;;;;;;;13.97;100.00;102326.63;5062166;28;20654;-83
2022/04/30 08:03:32;;;;;;;10.60;2.65;;;;;;;13.86;100.00;102335.69;5071230;28;20090;-83
2022/04/30 08:05:59;;;;;;;13.13;3.78;;;;;;;13.34;100.00;102325.59;5071901;28;20136;-85
2022/04/30 08:08:26;;;;;;;10.65;4.85;;;;;;;12.25;100.00;102337.53;5070240;28;20083;-82
2022/04/30 08:10:53;;;;;;;11.52;4.55;;;;;;;12.25;100.00;102329.66;5069517;28;20475;-82
2022/04/30 08:13:19;;;;;;;15.57;4.95;;;;;;;12.51;100.00;102321.22;5069953;28;20502;-82
2022/04/30 08:15:46;;;;;;;14.70;5.35;;;;;;;12.08;100.00;102342.22;5069736;28;20485;-82
2022/04/30 08:18:13;;;;;;;14.23;5.15;;;;;;;12.17;100.00;102331.53;5071464;28;20048;-83
2022/04/30 08:20:40;;;;;;;12.18;4.95;;;;;;;11.99;100.00;102337.09;5067084;28;20406;-83
2022/04/30 08:23:07;;;;;;;13.38;5.15;;;;;;;12.52;100.00;102330.00;5083658;28;20060;-83
2022/04/30 08:25:35;;;;;;;14.18;4.45;;;;;;;12.27;100.00;102329.59;5061932;28;20064;-82
2022/04/30 08:28:03;;;;;;;13.73;4.72;;;;;;;12.23;100.00;102326.16;5060838;28;20045;-83
2022/04/30 08:30:31;;;;;;;10.25;4.15;;;;;;;12.53;100.00;102318.56;5064001;28;20080;-82
2022/04/30 08:32:58;;;;;;;12.00;4.78;;;;;;;12.22;100.00;102306.06;5070277;28;20527;-82
2022/04/30 08:35:25;;;;;;;11.25;4.93;;;;;;;12.92;100.00;102308.09;5069908;28;20049;-83
2022/04/30 08:38:06;;;;;;;14.40;6.53;;;;;;;12.62;100.00;102302.59;5070836;28;20130;-83
2022/04/30 08:40:34;;;;;;;11.82;4.72;;;;;;;12.84;100.00;102299.53;5070781;28;20052;-83
2022/04/30 08:43:12;;;;;;;12.45;5.93;;;;;;;12.43;100.00;102306.50;5056864;28;20060;-83
2022/04/30 08:45:41;;;;;;;14.45;5.82;;;;;;;12.10;100.00;102254.63;5056747;28;20044;-82
2022/04/30 08:48:12;;;;;;;14.57;4.90;;;;;;;12.75;100.00;102297.97;5066829;28;20047;-82
2022/04/30 08:50:41;;;;;;;15.02;5.72;;;;;;;12.97;100.00;102293.09;5062457;28;20044;-82
2022/04/30 08:53:09;;;;;;;12.63;4.78;;;;;;;13.44;100.00;102308.69;5070593;28;20057;-82
2022/04/30 08:55:35;;;;;;;10.13;4.57;;;;;;;13.29;100.00;102307.25;5059193;28;20044;-82
2022/04/30 08:58:02;;;;;;;12.63;6.05;;;;;;;12.50;100.00;102287.09;5070636;28;20403;-82
2022/04/30 09:00:30;;;;;;;15.00;5.55;;;;;;;12.56;100.00;102289.59;5070993;28;20052;-81
2022/04/30 09:02:59;;;;;;;12.85;5.88;;;;;;;12.64;100.00;102292.94;5063061;28;20047;-82
2022/04/30 09:05:35;;;;;;;14.85;6.13;;;;;;;12.12;100.00;102292.22;5068292;28;20044;-82
2022/04/30 09:08:03;;;;;;;14.65;6.22;;;;;;;12.27;100.00;102279.69;5070128;28;20052;-83
2022/04/30 09:10:32;;;;;;;12.70;5.00;;;;;;;12.28;100.00;102270.94;5069861;28;20059;-82
2022/04/30 09:13:10;;;;;;;11.75;5.50;;;;;;;12.25;100.00;102270.97;5053053;28;20465;-83
2022/04/30 09:15:45;;;;;;;16.00;6.75;;;;;;;11.91;100.00;102254.13;5054596;28;20497;-82
2022/04/30 09:18:13;;;;;;;15.18;6.63;;;;;;;12.15;100.00;102284.31;5070535;28;20465;-82
2022/04/30 09:20:48;;;;;;;13.52;6.80;;;;;;;12.16;100.00;102266.78;5064400;28;20056;-82
2022/04/30 09:23:32;;;;;;;17.40;7.55;;;;;;;12.43;100.00;102275.00;5057787;28;20745;-82
2022/04/30 09:26:03;;;;;;;12.15;5.95;;;;;;;12.52;100.00;102267.78;5063358;28;20041;-83
2022/04/30 09:28:36;;;;;;;14.15;6.28;;;;;;;12.69;100.00;102266.56;5070135;28;20135;-82
2022/04/30 09:31:14;;;;;;;11.90;5.50;;;;;;;13.18;100.00;102259.31;5069983;28;20049;-83
2022/04/30 09:33:50;;;;;;;13.00;4.70;;;;;;;13.81;100.00;102255.97;5071554;28;20282;-83
2022/04/30 09:39:20;;;;;;;16.15;6.57;;;;;;;13.50;100.00;102248.00;5071800;28;20044;-83
2022/04/30 09:41:47;;;;;;;15.95;5.88;;;;;;;13.43;100.00;102249.94;5058300;28;20049;-83
2022/04/30 09:44:14;;;;;;;20.27;6.95;;;;;;;13.39;100.00;102236.91;5066141;28;20072;-82
2022/04/30 09:46:41;;;;;;;15.52;7.43;;;;;;;13.25;100.00;102243.34;5072705;28;20124;-82
2022/04/30 09:54:42;;;;;;;14.70;5.35;;;;;;;14.95;100.00;102210.47;5060799;28;20053;-82
2022/04/30 09:57:14;;;;;;;14.70;7.43;;;;;;;14.83;100.00;102216.13;5059192;28;20493;-83
2022/04/30 09:59:42;;;;;;;15.18;4.68;;;;;;;15.68;100.00;102200.94;5073118;28;20059;-83
2022/04/30 10:02:10;;;;;;;21.35;7.63;;;;;;;14.54;100.00;102183.63;5064489;28;20071;-83
2022/04/30 10:04:37;;;;;;;17.45;7.75;;;;;;;14.54;100.00;102195.94;5073359;28;20048;-83
2022/04/30 10:07:06;;;;;;;14.95;5.78;;;;;;;14.77;100.00;102195.25;5069459;28;20525;-83
2022/04/30 10:09:44;;;;;;;12.35;6.10;;;;;;;14.61;100.00;102172.00;5085736;28;20376;-83
2022/04/30 10:12:37;;;;;;;15.65;6.63;;;;;;;14.87;100.00;102175.56;5063356;28;20138;-84
2022/04/30 10:15:18;;;;;;;17.88;7.88;;;;;;;15.09;100.00;102195.97;5052992;28;20064;-84
2022/04/30 10:17:48;;;;;;;18.38;7.30;;;;;;;14.64;100.00;102173.66;5060964;28;20049;-83
2022/04/30 10:20:33;;;;;;;15.15;6.43;;;;;;;14.93;100.00;102166.59;5057388;28;20163;-83
2022/04/30 10:23:01;;;;;;;19.30;8.00;;;;;;;14.54;100.00;102178.34;5052400;28;20049;-83
2022/04/30 10:25:44;;;;;;;19.65;7.90;;;;;;;14.76;100.00;102175.91;5061990;28;20054;-83
2022/04/30 10:28:14;;;;;;;21.35;7.60;;;;;;;15.30;100.00;102162.72;5071491;28;20402;-83
2022/04/30 10:30:43;;;;;;;16.38;7.40;;;;;;;14.60;100.00;102157.09;5071307;28;20052;-83
2022/04/30 10:33:10;;;;;;;15.68;6.93;;;;;;;14.97;100.00;102147.97;5073002;28;20390;-83
2022/04/30 10:35:44;;;;;;;16.30;6.70;;;;;;;14.33;100.00;102160.56;5061072;28;20048;-85
2022/04/30 10:38:21;;;;;;;17.50;6.68;;;;;;;14.99;100.00;102147.94;5061076;28;20063;-85
2022/04/30 10:40:50;;;;;;;20.80;7.72;;;;;;;14.39;100.00;102153.31;5060901;28;20054;-85
2022/04/30 10:43:26;;;;;;;14.10;6.75;;;;;;;15.08;100.00;102147.59;5052442;28;20049;-87
2022/04/30 10:45:56;;;;;;;16.40;6.20;;;;;;;15.53;100.00;102096.78;5051512;28;20114;-85
2022/04/30 10:48:23;;;;;;;13.20;5.85;;;;;;;15.63;100.00;102088.50;5052890;28;20045;-85
2022/04/30 10:51:06;;;;;;;11.27;4.75;;;;;;;15.53;100.00;102069.53;5061524;28;20677;-85
2022/04/30 10:53:35;;;;;;;14.38;5.97;;;;;;;15.92;100.00;102096.22;5072215;28;20503;-84
2022/04/30 10:56:03;;;;;;;14.82;5.60;;;;;;;16.17;100.00;102086.50;5073471;28;20127;-84
2022/04/30 10:58:31;;;;;;;16.08;6.82;;;;;;;15.94;100.00;102070.59;5074075;28;20139;-85
2022/04/30 11:01:11;;;;;;;15.25;6.97;;;;;;;15.97;100.00;102090.78;5072377;28;20140;-84
2022/04/30 11:03:38;;;;;;;15.38;7.30;;;;;;;15.69;100.00;102078.59;5072692;28;20048;-84
2022/04/30 11:06:04;;;;;;;17.92;8.23;;;;;;;15.34;100.00;102045.59;5073853;28;20044;-84
2022/04/30 11:08:32;;;;;;;20.05;7.22;;;;;;;15.79;100.00;102046.56;5073625;28;20048;-84
2022/04/30 11:10:59;;;;;;;14.07;6.40;;;;;;;15.73;100.00;102050.28;5072841;28;20063;-84
2022/04/30 11:13:26;;;;;;;16.42;7.15;;;;;;;16.06;100.00;102044.63;5073126;28;20053;-84
2022/04/30 11:15:57;;;;;;;14.02;6.43;;;;;;;16.09;100.00;102036.56;5072142;28;20406;-85
2022/04/30 11:18:24;;;;;;;16.02;8.30;;;;;;;15.66;100.00;102068.13;5073554;28;20105;-85
2022/04/30 11:21:01;;;;;;;17.27;8.15;;;;;;;15.48;100.00;102014.25;5073365;28;20506;-85
2022/04/30 11:23:28;;;;;;;19.50;7.82;;;;;;;15.84;100.00;102047.25;5072505;28;20532;-85
2022/04/30 11:25:55;;;;;;;21.88;7.82;;;;;;;15.77;100.00;102043.13;5073262;28;20123;-85
2022/04/30 11:28:28;;;;;;;19.85;7.78;;;;;;;15.52;100.00;102029.03;5072229;28;20062;-85
2022/04/30 11:31:00;;;;;;;14.40;7.88;;;;;;;16.05;100.00;102043.75;5071933;28;20131;-85
2022/04/30 11:33:34;;;;;;;16.33;8.15;;;;;;;15.97;100.00;102005.38;5071934;28;20041;-85
2022/04/30 11:36:00;;;;;;;14.52;6.45;;;;;;;16.16;100.00;102016.06;5072757;28;20047;-85
2022/04/30 11:38:27;;;;;;;14.40;7.03;;;;;;;15.69;100.00;101982.69;5071946;28;20058;-85
2022/04/30 11:41:08;;;;;;;15.40;7.03;;;;;;;15.61;100.00;102013.78;5071701;28;20087;-85
2022/04/30 11:43:36;;;;;;;16.90;6.57;;;;;;;16.08;100.00;102021.66;5071983;28;20056;-85
2022/04/30 11:46:03;;;;;;;16.77;6.65;;;;;;;16.01;100.00;101983.22;5071985;28;20059;-85
2022/04/30 11:48:38;;;;;;;15.50;6.15;;;;;;;15.97;100.00;101981.59;5072118;28;20052;-85
2022/04/30 11:51:09;;;;;;;15.45;6.72;;;;;;;15.66;100.00;101996.84;5072994;28;20098;-85
2022/04/30 11:53:37;;;;;;;13.60;6.28;;;;;;;15.85;100.00;102022.59;5071564;28;20135;-85
2022/04/30 11:56:04;;;;;;;16.80;5.93;;;;;;;15.86;100.00;101989.94;5071477;28;20044;-85